createdAt,value
2022-10-06T00:00:55.841Z,94828.91
2022-10-06T00:03:23.030Z,94820.13
2022-10-06T00:05:50.942Z,94843.91
2022-10-06T00:08:18.533Z,94844.91
2022-10-06T00:10:45.033Z,94809.69
2022-10-06T00:13:11.521Z,94810.34
2022-10-06T00:15:38.014Z,94815.91
2022-10-06T00:18:04.647Z,94832.84
2022-10-06T00:20:31.978Z,94817.84
2022-10-06T00:22:58.407Z,94828.28
2022-10-06T00:25:25.887Z,94813.59
2022-10-06T00:27:53.142Z,94858.75
2022-10-06T00:30:25.142Z,94819.81
2022-10-06T00:32:54.626Z,94851.88
2022-10-06T00:35:21.523Z,94853.69
2022-10-06T00:37:48.250Z,94841.16
2022-10-06T00:40:15.034Z,94850.06
2022-10-06T00:42:53.620Z,94858.41
2022-10-06T00:45:36.236Z,94830.69
2022-10-06T00:48:07.976Z,94854.97
2022-10-06T00:50:36.038Z,94840.34
2022-10-06T00:53:03.304Z,94829.59
2022-10-06T00:55:30.984Z,94857.94
2022-10-06T00:57:59.247Z,94858.91
2022-10-06T01:00:25.940Z,94812.63
2022-10-06T01:03:01.998Z,94840.34
2022-10-06T01:05:42.128Z,94824.72
2022-10-06T01:08:08.826Z,94840.97
2022-10-06T01:10:35.293Z,94849.28
2022-10-06T01:13:02.250Z,94855.34
2022-10-06T01:15:29.129Z,94833.50
2022-10-06T01:18:02.866Z,94830.41
2022-10-06T01:20:29.975Z,94840.03
2022-10-06T01:23:01.958Z,94855.34
2022-10-06T01:25:28.533Z,94829.53
2022-10-06T01:27:56.320Z,94841.09
2022-10-06T01:30:29.684Z,94824.97
2022-10-06T01:32:56.560Z,94849.41
2022-10-06T01:35:22.981Z,94856.09
2022-10-06T01:37:49.375Z,94839.25
2022-10-06T01:40:15.903Z,94836.94
2022-10-06T01:42:42.330Z,94828.75
2022-10-06T01:45:09.105Z,94849.00
2022-10-06T01:47:35.588Z,94833.97
2022-10-06T01:50:01.993Z,94835.25
2022-10-06T01:52:28.400Z,94842.03
2022-10-06T01:54:54.948Z,94861.81
2022-10-06T01:57:21.428Z,94838.34
2022-10-06T01:59:52.615Z,94815.88
2022-10-06T02:02:21.042Z,94861.75
2022-10-06T02:04:47.722Z,94866.41
2022-10-06T02:07:14.169Z,94854.31
2022-10-06T02:09:44.845Z,94843.19
2022-10-06T02:12:11.344Z,94863.88
2022-10-06T02:14:37.831Z,94836.97
2022-10-06T02:17:04.267Z,94869.88
2022-10-06T02:19:30.689Z,94870.91
2022-10-06T02:21:58.240Z,94842.66
2022-10-06T02:24:27.374Z,94849.38
2022-10-06T02:26:54.245Z,94858.88
2022-10-06T02:29:20.693Z,94875.72
2022-10-06T02:31:47.911Z,94868.19
2022-10-06T02:34:14.300Z,94863.38
2022-10-06T02:36:40.734Z,94854.19
2022-10-06T02:39:07.132Z,94860.94
2022-10-06T02:41:33.627Z,94880.50
2022-10-06T02:44:00.026Z,94862.34
2022-10-06T02:46:26.857Z,94858.69
2022-10-06T02:48:56.164Z,94892.53
2022-10-06T02:51:22.881Z,94885.19
2022-10-06T02:53:50.248Z,94899.69
2022-10-06T02:56:20.897Z,94907.06
2022-10-06T02:58:50.608Z,94879.78
2022-10-06T03:01:19.959Z,94884.88
2022-10-06T03:03:47.776Z,94901.16
2022-10-06T03:06:24.719Z,94912.84
2022-10-06T03:09:03.532Z,94882.69
2022-10-06T03:11:41.030Z,94876.56
2022-10-06T03:14:07.500Z,94881.91
2022-10-06T03:16:39.516Z,94890.72
2022-10-06T03:19:11.114Z,94870.53
2022-10-06T03:21:40.846Z,94913.66
2022-10-06T03:24:07.410Z,94887.53
2022-10-06T03:26:39.942Z,94903.47
2022-10-06T03:29:11.354Z,94925.28
2022-10-06T03:31:39.394Z,94925.75
2022-10-06T03:34:05.961Z,94912.44
2022-10-06T03:36:33.754Z,94932.94
2022-10-06T03:39:01.017Z,94920.06
2022-10-06T03:41:30.150Z,94945.53
2022-10-06T03:43:58.852Z,94945.41
2022-10-06T03:46:28.172Z,94944.66
2022-10-06T03:48:57.310Z,94957.00
2022-10-06T03:51:29.686Z,94950.16
2022-10-06T03:53:57.063Z,94928.94
2022-10-06T03:56:26.462Z,94944.16
2022-10-06T03:58:59.677Z,94944.22
2022-10-06T04:01:36.583Z,94954.91
2022-10-06T04:04:07.059Z,94935.84
2022-10-06T04:06:44.468Z,94965.06
2022-10-06T04:09:15.511Z,94948.19
2022-10-06T04:11:43.628Z,94950.56
2022-10-06T04:14:13.008Z,94962.59
2022-10-06T04:16:47.931Z,94955.31
2022-10-06T04:19:16.195Z,94976.28
2022-10-06T04:21:45.420Z,94953.66
2022-10-06T04:24:12.774Z,94947.84
2022-10-06T04:26:42.110Z,94965.97
2022-10-06T04:29:11.431Z,94983.84
2022-10-06T04:31:39.212Z,94987.25
2022-10-06T04:34:07.336Z,94994.38
2022-10-06T04:36:40.961Z,94961.44
2022-10-06T04:39:10.245Z,94963.09
2022-10-06T04:41:39.023Z,94998.44
2022-10-06T04:44:06.221Z,94970.13
2022-10-06T04:46:43.613Z,95011.03
2022-10-06T04:49:20.800Z,94976.13
2022-10-06T04:51:49.140Z,94980.13
2022-10-06T04:54:15.869Z,94990.28
2022-10-06T04:56:42.329Z,95022.03
2022-10-06T04:59:08.720Z,95000.19
2022-10-06T05:01:37.234Z,95023.25
2022-10-06T05:04:05.025Z,95027.22
2022-10-06T05:06:40.920Z,95026.53
2022-10-06T05:09:10.123Z,95028.44
2022-10-06T05:11:38.628Z,95020.94
2022-10-06T05:14:05.323Z,95031.09
2022-10-06T05:16:32.106Z,95031.63
2022-10-06T05:18:59.128Z,95003.16
2022-10-06T05:21:28.412Z,95008.06
2022-10-06T05:23:54.938Z,95015.84
2022-10-06T05:26:23.600Z,95036.16
2022-10-06T05:28:50.574Z,95047.38
2022-10-06T05:31:20.453Z,95049.53
2022-10-06T05:33:47.266Z,95033.44
2022-10-06T05:36:15.778Z,95042.75
2022-10-06T05:38:43.995Z,95037.34
2022-10-06T05:41:19.357Z,95042.25
2022-10-06T05:43:45.883Z,95055.63
2022-10-06T05:46:20.282Z,95066.25
2022-10-06T05:48:48.041Z,95048.78
2022-10-06T05:51:14.909Z,95059.13
2022-10-06T05:53:41.550Z,95052.84
2022-10-06T05:56:13.157Z,95081.78
2022-10-06T05:58:42.106Z,95049.78
2022-10-06T06:01:11.771Z,95075.09
2022-10-06T06:03:39.847Z,95059.31
2022-10-06T06:06:22.580Z,95082.84
2022-10-06T06:08:53.700Z,95081.16
2022-10-06T06:11:26.331Z,95092.91
2022-10-06T06:13:56.882Z,95069.72
2022-10-06T06:16:23.990Z,95098.50
2022-10-06T06:18:50.790Z,95085.09
2022-10-06T06:21:17.740Z,95077.31
2022-10-06T06:23:51.429Z,95065.25
2022-10-06T06:26:29.176Z,95093.22
2022-10-06T06:29:02.489Z,95097.16
2022-10-06T06:31:31.382Z,95110.31
2022-10-06T06:33:59.893Z,95112.97
2022-10-06T06:37:08.357Z,95112.22
2022-10-06T06:39:36.130Z,95086.53
2022-10-06T06:42:24.715Z,95118.72
2022-10-06T06:44:51.099Z,95103.19
2022-10-06T06:47:19.157Z,95100.19
2022-10-06T06:49:53.816Z,95122.19
2022-10-06T06:52:20.682Z,95111.41
2022-10-06T06:54:49.901Z,95115.38
2022-10-06T06:57:22.262Z,95112.81
2022-10-06T06:59:48.639Z,95090.38
2022-10-06T07:02:17.132Z,95120.44
2022-10-06T07:04:43.958Z,95098.91
2022-10-06T07:07:11.418Z,95086.84
2022-10-06T07:09:38.088Z,95101.78
2022-10-06T07:12:04.476Z,95127.41
2022-10-06T07:14:30.912Z,95115.69
2022-10-06T07:17:35.799Z,95102.69
2022-10-06T07:20:20.601Z,95084.75
2022-10-06T07:23:05.502Z,95115.03
2022-10-06T07:25:32.072Z,95107.38
2022-10-06T07:27:58.637Z,95098.91
2022-10-06T07:30:29.260Z,95123.72
2022-10-06T07:32:55.818Z,95130.69
2022-10-06T07:35:23.971Z,95137.03
2022-10-06T07:37:51.284Z,95140.94
2022-10-06T07:40:17.808Z,95143.53
2022-10-06T07:42:52.084Z,95123.91
2022-10-06T07:45:41.656Z,95147.66
2022-10-06T07:48:14.343Z,95150.56
2022-10-06T07:50:49.261Z,95128.25
2022-10-06T07:53:17.690Z,95114.47
2022-10-06T07:55:46.563Z,95124.16
2022-10-06T07:58:17.282Z,95127.06
2022-10-06T08:00:44.887Z,95137.19
2022-10-06T08:03:23.598Z,95134.38
2022-10-06T08:05:57.558Z,95155.81
2022-10-06T08:08:24.240Z,95143.19
2022-10-06T08:11:01.554Z,95157.69
2022-10-06T08:13:28.692Z,95154.19
2022-10-06T08:15:56.518Z,95154.81
2022-10-06T08:18:45.438Z,95127.25
2022-10-06T08:21:14.236Z,95132.91
2022-10-06T08:23:44.887Z,95166.91
2022-10-06T08:26:12.899Z,95128.00
2022-10-06T08:28:40.127Z,95135.84
2022-10-06T08:31:11.530Z,95130.28
2022-10-06T08:33:39.691Z,95151.91
2022-10-06T08:36:08.651Z,95155.69
2022-10-06T08:38:37.054Z,95126.28
2022-10-06T08:41:24.878Z,95155.00
2022-10-06T08:43:57.374Z,95155.94
2022-10-06T08:46:28.067Z,95150.31
2022-10-06T08:48:54.499Z,95139.88
2022-10-06T08:51:30.020Z,95151.78
2022-10-06T08:54:29.869Z,95134.81
2022-10-06T08:57:21.426Z,95152.84
2022-10-06T08:59:53.476Z,95127.94
2022-10-06T09:02:30.246Z,95118.56
2022-10-06T09:05:01.130Z,95143.34
2022-10-06T09:07:54.099Z,95148.72
2022-10-06T09:10:42.016Z,95144.28
2022-10-06T09:13:21.625Z,95124.41
2022-10-06T09:15:58.196Z,95143.47
2022-10-06T09:18:49.468Z,95125.66
2022-10-06T09:21:34.869Z,95114.69
2022-10-06T09:24:07.546Z,95119.53
2022-10-06T09:26:34.453Z,95133.78
2022-10-06T09:29:00.960Z,95125.19
2022-10-06T09:31:38.190Z,95117.44
2022-10-06T09:34:28.475Z,95143.00
2022-10-06T09:37:08.987Z,95138.06
2022-10-06T09:39:38.349Z,95109.25
2022-10-06T09:42:13.408Z,95119.41
2022-10-06T09:44:53.520Z,95129.22
2022-10-06T09:47:35.066Z,95135.50
2022-10-06T09:50:20.153Z,95127.22
2022-10-06T09:53:16.320Z,95108.09
2022-10-06T09:55:52.257Z,95129.19
2022-10-06T09:58:22.430Z,95119.31
2022-10-06T10:01:09.228Z,95111.91
2022-10-06T10:04:19.918Z,95116.53
2022-10-06T10:06:47.796Z,95097.97
2022-10-06T10:09:20.615Z,95120.00
2022-10-06T10:12:25.028Z,95095.72
2022-10-06T10:15:04.413Z,95098.66
2022-10-06T10:17:48.140Z,95113.97
2022-10-06T10:20:55.804Z,95115.34
2022-10-06T10:23:31.638Z,95114.56
2022-10-06T10:26:13.831Z,95115.28
2022-10-06T10:28:59.848Z,95118.06
2022-10-06T10:31:56.118Z,95108.28
2022-10-06T10:34:42.740Z,95117.13
2022-10-06T10:37:14.104Z,95116.47
2022-10-06T10:39:52.621Z,95113.81
2022-10-06T10:42:28.647Z,95128.31
2022-10-06T10:45:02.885Z,95111.53
2022-10-06T10:47:41.765Z,95131.69
2022-10-06T10:50:29.267Z,95128.22
2022-10-06T10:53:15.015Z,95113.50
2022-10-06T10:55:44.520Z,95132.41
2022-10-06T10:58:19.021Z,95094.41
2022-10-06T11:00:49.948Z,95120.84
2022-10-06T11:03:16.491Z,95109.53
2022-10-06T11:05:59.136Z,95099.09
2022-10-06T11:08:56.322Z,95124.09
2022-10-06T11:12:02.132Z,95106.97
2022-10-06T11:14:55.928Z,95115.44
2022-10-06T11:17:40.241Z,95117.88
2022-10-06T11:20:26.548Z,95117.00
2022-10-06T11:23:30.456Z,95120.84
2022-10-06T11:26:26.490Z,95121.00
2022-10-06T11:29:34.735Z,95121.13
2022-10-06T11:32:21.897Z,95106.13
2022-10-06T11:34:49.883Z,95112.53
2022-10-06T11:37:22.481Z,95102.09
2022-10-06T11:40:15.888Z,95082.97
2022-10-06T11:43:20.076Z,95107.84
2022-10-06T11:46:04.862Z,95100.75
2022-10-06T11:48:33.709Z,95086.28
2022-10-06T11:51:24.475Z,95091.09
2022-10-06T11:53:52.144Z,95102.72
2022-10-06T11:56:18.560Z,95087.63
2022-10-06T11:58:51.157Z,95080.75
2022-10-06T12:01:38.999Z,95085.53
2022-10-06T12:04:08.407Z,95082.31
2022-10-06T12:06:47.064Z,95085.78
2022-10-06T12:09:30.743Z,95087.91
2022-10-06T12:12:15.588Z,95081.69
2022-10-06T12:18:26.267Z,95060.88
2022-10-06T12:21:06.229Z,95074.25
2022-10-06T12:24:18.432Z,95074.03
2022-10-06T12:26:44.788Z,95065.50
2022-10-06T12:29:38.105Z,95070.56
2022-10-06T12:32:12.988Z,95069.22
2022-10-06T12:34:39.344Z,95069.22
2022-10-06T12:37:36.827Z,95061.94
2022-10-06T12:40:23.032Z,95061.34
2022-10-06T12:43:29.657Z,95034.13
2022-10-06T12:45:57.220Z,95053.50
2022-10-06T12:48:51.716Z,95052.84
2022-10-06T12:51:23.195Z,95044.03
2022-10-06T12:54:22.193Z,95050.38
2022-10-06T12:57:14.600Z,95042.91
2022-10-06T12:59:41.798Z,95040.34
2022-10-06T13:02:21.193Z,95013.69
2022-10-06T13:05:01.508Z,95039.41
2022-10-06T13:07:31.139Z,95030.50
2022-10-06T13:10:15.934Z,95034.59
2022-10-06T13:12:47.427Z,95031.34
2022-10-06T13:15:25.350Z,95038.50
2022-10-06T13:18:14.356Z,95032.72
2022-10-06T13:20:50.450Z,95025.13
2022-10-06T13:23:24.595Z,95010.69
2022-10-06T13:26:15.532Z,95008.94
2022-10-06T13:28:43.932Z,95028.81
2022-10-06T13:31:34.643Z,95032.72
2022-10-06T13:34:12.845Z,95026.63
2022-10-06T13:36:43.840Z,95013.69
2022-10-06T13:39:18.784Z,94996.84
2022-10-06T13:42:06.080Z,95024.19
2022-10-06T13:44:45.045Z,94994.28
2022-10-06T13:47:21.333Z,95023.50
2022-10-06T13:49:53.138Z,95027.06
2022-10-06T13:52:30.129Z,95010.31
2022-10-06T13:54:58.505Z,95029.72
2022-10-06T13:57:47.877Z,95025.78
2022-10-06T14:00:14.233Z,95031.34
2022-10-06T14:02:45.222Z,95013.22
2022-10-06T14:05:26.352Z,95009.53
2022-10-06T14:07:56.623Z,95023.38
2022-10-06T14:10:34.164Z,95030.22
2022-10-06T14:13:01.470Z,95010.13
2022-10-06T14:15:45.352Z,95011.59
2022-10-06T14:18:46.837Z,95032.38
2022-10-06T14:21:41.874Z,95025.13
2022-10-06T14:24:18.842Z,95020.84
2022-10-06T14:26:54.942Z,94993.69
2022-10-06T14:29:23.063Z,95018.41
2022-10-06T14:31:49.599Z,95009.06
2022-10-06T14:34:21.959Z,95008.44
2022-10-06T14:36:55.085Z,95032.25
2022-10-06T14:39:22.060Z,95037.09
2022-10-06T14:41:55.554Z,95014.31
2022-10-06T14:44:24.007Z,95006.38
2022-10-06T14:46:58.576Z,95021.47
2022-10-06T14:49:29.197Z,95021.09
2022-10-06T14:51:59.820Z,95010.78
2022-10-06T14:54:35.101Z,94997.88
2022-10-06T14:57:02.552Z,94998.47
2022-10-06T14:59:32.646Z,94995.78
2022-10-06T15:01:59.113Z,94997.09
2022-10-06T15:04:31.835Z,94980.50
2022-10-06T15:07:19.678Z,94982.22
2022-10-06T15:09:53.083Z,94979.44
2022-10-06T15:12:23.592Z,95023.19
2022-10-06T15:14:50.991Z,95001.69
2022-10-06T15:17:24.349Z,94992.75
2022-10-06T15:19:54.805Z,94983.63
2022-10-06T15:22:21.242Z,94971.59
2022-10-06T15:24:52.704Z,94995.44
2022-10-06T15:27:37.787Z,94981.59
2022-10-06T15:30:16.700Z,94976.44
2022-10-06T15:32:43.075Z,94990.38
2022-10-06T15:35:11.814Z,94974.47
2022-10-06T15:37:48.479Z,94996.22
2022-10-06T15:40:16.342Z,94979.56
2022-10-06T15:42:46.698Z,95014.63
2022-10-06T15:45:14.216Z,95009.78
2022-10-06T15:47:40.684Z,94971.91
2022-10-06T15:50:07.993Z,94969.13
2022-10-06T15:52:34.579Z,95008.00
2022-10-06T15:55:00.988Z,94991.47
2022-10-06T15:57:28.872Z,94990.03
2022-10-06T15:59:55.279Z,94998.72
2022-10-06T16:02:22.419Z,95019.03
2022-10-06T16:05:16.760Z,94998.47
2022-10-06T16:07:43.205Z,94998.03
2022-10-06T16:10:09.581Z,95005.97
2022-10-06T16:12:35.973Z,94999.50
2022-10-06T16:15:02.519Z,94978.59
2022-10-06T16:17:28.924Z,94998.75
2022-10-06T16:19:58.518Z,94983.97
2022-10-06T16:22:24.902Z,94991.84
2022-10-06T16:24:51.379Z,95009.94
2022-10-06T16:27:18.475Z,94997.88
2022-10-06T16:29:45.105Z,95000.81
2022-10-06T16:32:17.220Z,95007.72
2022-10-06T16:34:43.762Z,94983.88
2022-10-06T16:37:10.262Z,95022.13
2022-10-06T16:39:36.675Z,95013.28
2022-10-06T16:42:03.768Z,95020.66
2022-10-06T16:44:33.237Z,94999.19
2022-10-06T16:46:59.719Z,95030.94
2022-10-06T16:49:28.173Z,94996.38
2022-10-06T16:51:54.578Z,95008.19
2022-10-06T16:54:21.037Z,95001.19
2022-10-06T16:56:53.836Z,94998.53
2022-10-06T16:59:26.457Z,94986.03
2022-10-06T17:01:52.923Z,94992.59
2022-10-06T17:04:21.786Z,95029.03
2022-10-06T17:06:57.452Z,95015.38
2022-10-06T17:09:29.012Z,94988.47
2022-10-06T17:11:59.985Z,95034.59
2022-10-06T17:14:27.844Z,95034.31
2022-10-06T17:16:56.091Z,95028.47
2022-10-06T17:19:24.912Z,94995.56
2022-10-06T17:21:57.473Z,95004.34
2022-10-06T17:24:28.269Z,95043.28
2022-10-06T17:26:55.867Z,95035.66
2022-10-06T17:29:23.544Z,95019.69
2022-10-06T17:32:00.134Z,95010.16
2022-10-06T17:34:31.717Z,95014.78
2022-10-06T17:36:59.273Z,95019.81
2022-10-06T17:39:25.660Z,95020.22
2022-10-06T17:41:53.400Z,95056.13
2022-10-06T17:44:23.547Z,95048.75
2022-10-06T17:46:56.800Z,95048.03
2022-10-06T17:49:25.348Z,95058.19
2022-10-06T17:51:53.679Z,95037.06
2022-10-06T17:54:22.768Z,95061.41
2022-10-06T17:56:53.037Z,95037.88
2022-10-06T17:59:25.991Z,95038.66
2022-10-06T18:01:56.332Z,95026.91
2022-10-06T18:04:23.403Z,95045.19
2022-10-06T18:06:52.873Z,95044.78
2022-10-06T18:09:19.522Z,95060.66
2022-10-06T18:11:48.443Z,95026.19
2022-10-06T18:14:19.736Z,95061.00
2022-10-06T18:16:53.447Z,95058.19
2022-10-06T18:19:35.521Z,95024.53
2022-10-06T18:22:09.837Z,95037.31
2022-10-06T18:24:36.577Z,95054.19
2022-10-06T18:27:05.019Z,95052.16
2022-10-06T18:29:33.422Z,95049.31
2022-10-06T18:32:40.267Z,95051.72
2022-10-06T18:37:34.062Z,95034.75
2022-10-06T18:40:02.391Z,95024.19
2022-10-06T18:42:29.104Z,95027.44
2022-10-06T18:45:14.183Z,95007.22
2022-10-06T18:47:58.956Z,95029.09
2022-10-06T18:50:35.004Z,95028.69
2022-10-06T18:53:01.708Z,95018.13
2022-10-06T18:55:29.742Z,95028.91
2022-10-06T18:57:56.163Z,95033.16
2022-10-06T19:00:22.608Z,95025.03
2022-10-06T19:02:51.744Z,95051.00
2022-10-06T19:05:18.253Z,95031.50
2022-10-06T19:07:45.121Z,95028.22
2022-10-06T19:10:11.916Z,95027.03
2022-10-06T19:12:38.311Z,95031.28
2022-10-06T19:15:05.163Z,95027.38
2022-10-06T19:17:32.199Z,95008.53
2022-10-06T19:19:58.590Z,95023.28
2022-10-06T19:22:25.139Z,95012.31
2022-10-06T19:24:52.230Z,95017.53
2022-10-06T19:27:23.907Z,95044.66
2022-10-06T19:29:54.085Z,95042.97
2022-10-06T19:32:26.743Z,95033.47
2022-10-06T19:34:54.851Z,95057.72
2022-10-06T19:37:21.324Z,95041.56
2022-10-06T19:39:50.117Z,95029.63
2022-10-06T19:42:36.837Z,95050.41
2022-10-06T19:45:05.334Z,95041.88
2022-10-06T19:47:31.827Z,95029.66
2022-10-06T19:50:04.929Z,95022.59
2022-10-06T19:52:34.491Z,94995.47
2022-10-06T19:55:01.164Z,95003.84
2022-10-06T19:57:29.176Z,95047.09
2022-10-06T19:59:55.587Z,95025.81
2022-10-06T20:02:22.271Z,95033.78
2022-10-06T20:04:48.762Z,95022.97
2022-10-06T20:07:15.200Z,95026.03
2022-10-06T20:09:47.683Z,95042.47
2022-10-06T20:12:14.092Z,95023.03
2022-10-06T20:14:40.476Z,95032.84
2022-10-06T20:17:06.943Z,95021.31
2022-10-06T20:19:34.321Z,95023.59
2022-10-06T20:22:01.099Z,95021.53
2022-10-06T20:24:27.839Z,95045.03
2022-10-06T20:26:54.306Z,95026.94
2022-10-06T20:29:25.331Z,95055.78
2022-10-06T20:31:54.574Z,95052.63
2022-10-06T20:34:26.665Z,95042.19
2022-10-06T20:36:56.177Z,95009.41
2022-10-06T20:39:41.997Z,95029.66
2022-10-06T20:42:14.974Z,95059.31
2022-10-06T20:44:42.910Z,95014.91
2022-10-06T20:47:10.525Z,95046.28
2022-10-06T20:49:37.625Z,95027.47
2022-10-06T20:52:05.436Z,95020.25
2022-10-06T20:54:34.931Z,95045.75
2022-10-06T20:57:04.298Z,95029.66
2022-10-06T20:59:31.459Z,95032.72
2022-10-06T21:02:00.947Z,94999.09
2022-10-06T21:04:27.714Z,95008.13
2022-10-06T21:06:54.703Z,95025.50
2022-10-06T21:09:21.771Z,95024.94
2022-10-06T21:11:48.657Z,95003.06
2022-10-06T21:14:16.176Z,95026.78
2022-10-06T21:16:45.410Z,94982.28
2022-10-06T21:19:14.598Z,95025.94
2022-10-06T21:21:42.730Z,94991.59
2022-10-06T21:24:09.962Z,95024.19
2022-10-06T21:26:42.702Z,95015.13
2022-10-06T21:29:12.984Z,94985.59
2022-10-06T21:31:39.871Z,95013.16
2022-10-06T21:34:06.499Z,95011.06
2022-10-06T21:36:33.212Z,94993.94
2022-10-06T21:39:06.712Z,95010.56
2022-10-06T21:41:38.872Z,95006.16
2022-10-06T21:44:13.316Z,94982.56
2022-10-06T21:46:40.975Z,95005.13
2022-10-06T21:49:12.606Z,95001.59
2022-10-06T21:51:40.503Z,94977.53
2022-10-06T21:54:07.830Z,94999.03
2022-10-06T21:56:34.409Z,94984.91
2022-10-06T21:59:01.083Z,94962.00
2022-10-06T22:01:30.051Z,94952.03
2022-10-06T22:03:58.608Z,94951.75
2022-10-06T22:06:25.234Z,94964.91
2022-10-06T22:08:51.846Z,94938.84
2022-10-06T22:11:24.561Z,94984.50
2022-10-06T22:13:55.215Z,94985.38
2022-10-06T22:16:24.654Z,94966.44
2022-10-06T22:18:51.489Z,94964.91
2022-10-06T22:21:17.983Z,94987.31
2022-10-06T22:23:46.323Z,94986.50
2022-10-06T22:26:14.937Z,94980.88
2022-10-06T22:28:47.027Z,94961.19
2022-10-06T22:31:14.873Z,94971.16
2022-10-06T22:33:42.418Z,94944.91
2022-10-06T22:36:11.518Z,94950.59
2022-10-06T22:38:38.701Z,94953.94
2022-10-06T22:41:07.980Z,94963.47
2022-10-06T22:43:35.341Z,94950.09
2022-10-06T22:46:02.924Z,94953.66
2022-10-06T22:48:29.750Z,94957.66
2022-10-06T22:50:56.314Z,94948.56
2022-10-06T22:53:24.979Z,94930.09
2022-10-06T22:55:52.351Z,94924.13
2022-10-06T22:58:19.457Z,94943.06
2022-10-06T23:00:46.272Z,94955.59
2022-10-06T23:03:13.123Z,94893.09
2022-10-06T23:05:40.412Z,94926.00
2022-10-06T23:08:07.966Z,94942.00
2022-10-06T23:10:36.090Z,94928.00
2022-10-06T23:13:03.213Z,94909.41
2022-10-06T23:15:30.045Z,94894.06
2022-10-06T23:17:56.617Z,94899.88
2022-10-06T23:20:23.265Z,94909.22
2022-10-06T23:22:49.828Z,94934.84
2022-10-06T23:25:16.570Z,94898.47
2022-10-06T23:27:43.378Z,94899.34
2022-10-06T23:30:10.449Z,94908.16
2022-10-06T23:32:37.654Z,94905.59
2022-10-06T23:35:04.655Z,94877.25
2022-10-06T23:37:31.265Z,94933.63
2022-10-06T23:39:57.798Z,94933.81
2022-10-06T23:42:24.343Z,94898.28
2022-10-06T23:44:50.922Z,94908.34
2022-10-06T23:47:17.475Z,94903.13
2022-10-06T23:49:44.145Z,94899.75
2022-10-06T23:52:11.213Z,94895.06
2022-10-06T23:54:37.896Z,94908.06
2022-10-06T23:57:04.619Z,94901.38
2022-10-06T23:59:31.599Z,94926.19
